sensor_id;sensor_type;location;lat;lon;timestamp;temperature;humidity
65146;DHT22;51730;56.950;24.126;2023-03-04T00:01:01;2.90;99.90
65146;DHT22;51730;56.950;24.126;2023-03-04T00:03:28;3.00;99.90
65146;DHT22;51730;56.950;24.126;2023-03-04T00:05:54;3.10;99.90
65146;DHT22;51730;56.950;24.126;2023-03-04T00:08:21;3.00;99.90
65146;DHT22;51730;56.950;24.126;2023-03-04T00:10:48;3.20;99.90
65146;DHT22;51730;56.950;24.126;2023-03-04T00:13:15;3.00;99.90
65146;DHT22;51730;56.950;24.126;2023-03-04T00:15:42;3.10;99.90
65146;DHT22;51730;56.950;24.126;2023-03-04T00:18:09;3.10;99.90
65146;DHT22;51730;56.950;24.126;2023-03-04T00:20:35;3.20;99.90
65146;DHT22;51730;56.950;24.126;2023-03-04T00:23:02;3.30;99.90
65146;DHT22;51730;56.950;24.126;2023-03-04T00:25:29;3.10;99.90
65146;DHT22;51730;56.950;24.126;2023-03-04T00:27:56;3.20;99.90
65146;DHT22;51730;56.950;24.126;2023-03-04T00:30:23;3.20;99.90
65146;DHT22;51730;56.950;24.126;2023-03-04T00:32:50;3.30;99.90
65146;DHT22;51730;56.950;24.126;2023-03-04T00:35:17;3.30;99.90
65146;DHT22;51730;56.950;24.126;2023-03-04T00:37:44;3.30;99.90
65146;DHT22;51730;56.950;24.126;2023-03-04T00:40:11;3.20;99.90
65146;DHT22;51730;56.950;24.126;2023-03-04T00:42:38;3.10;99.90
65146;DHT22;51730;56.950;24.126;2023-03-04T00:45:05;3.20;99.90
65146;DHT22;51730;56.950;24.126;2023-03-04T00:47:31;3.10;99.90
65146;DHT22;51730;56.950;24.126;2023-03-04T00:49:58;3.20;99.90
65146;DHT22;51730;56.950;24.126;2023-03-04T00:52:25;3.20;99.90
65146;DHT22;51730;56.950;24.126;2023-03-04T00:54:52;3.20;99.90
65146;DHT22;51730;56.950;24.126;2023-03-04T00:57:19;3.20;99.90
65146;DHT22;51730;56.950;24.126;2023-03-04T00:59:45;3.10;99.90
65146;DHT22;51730;56.950;24.126;2023-03-04T01:02:12;3.10;99.90
65146;DHT22;51730;56.950;24.126;2023-03-04T01:04:39;3.00;99.90
65146;DHT22;51730;56.950;24.126;2023-03-04T01:07:07;3.00;99.90
65146;DHT22;51730;56.950;24.126;2023-03-04T01:09:34;3.00;99.90
65146;DHT22;51730;56.950;24.126;2023-03-04T01:12:01;3.00;99.90
65146;DHT22;51730;56.950;24.126;2023-03-04T01:14:27;3.00;99.90
65146;DHT22;51730;56.950;24.126;2023-03-04T01:16:54;3.00;99.90
65146;DHT22;51730;56.950;24.126;2023-03-04T01:19:21;3.10;99.90
65146;DHT22;51730;56.950;24.126;2023-03-04T01:21:48;3.10;99.90
65146;DHT22;51730;56.950;24.126;2023-03-04T01:24:15;3.10;99.90
65146;DHT22;51730;56.950;24.126;2023-03-04T01:26:42;3.10;99.90
65146;DHT22;51730;56.950;24.126;2023-03-04T01:29:08;3.00;99.90
65146;DHT22;51730;56.950;24.126;2023-03-04T01:31:35;3.00;99.90
65146;DHT22;51730;56.950;24.126;2023-03-04T01:34:02;3.00;99.90
65146;DHT22;51730;56.950;24.126;2023-03-04T01:36:29;2.90;99.90
65146;DHT22;51730;56.950;24.126;2023-03-04T01:38:56;2.90;99.90
65146;DHT22;51730;56.950;24.126;2023-03-04T01:41:24;2.80;99.90
65146;DHT22;51730;56.950;24.126;2023-03-04T01:43:51;2.90;99.90
65146;DHT22;51730;56.950;24.126;2023-03-04T01:46:18;2.90;99.90
65146;DHT22;51730;56.950;24.126;2023-03-04T01:48:47;3.00;99.90
65146;DHT22;51730;56.950;24.126;2023-03-04T01:51:14;2.90;99.90
65146;DHT22;51730;56.950;24.126;2023-03-04T01:53:42;3.00;99.90
65146;DHT22;51730;56.950;24.126;2023-03-04T01:56:14;3.10;99.90
65146;DHT22;51730;56.950;24.126;2023-03-04T01:58:41;3.10;99.90
65146;DHT22;51730;56.950;24.126;2023-03-04T02:01:11;3.10;99.90
65146;DHT22;51730;56.950;24.126;2023-03-04T02:03:38;3.20;99.90
65146;DHT22;51730;56.950;24.126;2023-03-04T02:06:05;3.20;99.90
65146;DHT22;51730;56.950;24.126;2023-03-04T02:08:32;3.10;99.90
65146;DHT22;51730;56.950;24.126;2023-03-04T02:11:00;3.10;99.90
65146;DHT22;51730;56.950;24.126;2023-03-04T02:13:26;3.10;99.90
65146;DHT22;51730;56.950;24.126;2023-03-04T02:15:53;3.10;99.90
65146;DHT22;51730;56.950;24.126;2023-03-04T02:18:21;3.10;99.90
65146;DHT22;51730;56.950;24.126;2023-03-04T02:26:06;3.00;99.90
65146;DHT22;51730;56.950;24.126;2023-03-04T02:28:33;3.00;99.90
65146;DHT22;51730;56.950;24.126;2023-03-04T02:31:00;3.00;99.90
65146;DHT22;51730;56.950;24.126;2023-03-04T02:33:27;2.90;99.90
65146;DHT22;51730;56.950;24.126;2023-03-04T02:35:54;3.00;99.90
65146;DHT22;51730;56.950;24.126;2023-03-04T02:38:20;3.00;99.90
65146;DHT22;51730;56.950;24.126;2023-03-04T02:40:47;3.00;99.90
65146;DHT22;51730;56.950;24.126;2023-03-04T02:43:15;3.00;99.90
65146;DHT22;51730;56.950;24.126;2023-03-04T02:45:47;2.90;99.90
65146;DHT22;51730;56.950;24.126;2023-03-04T02:48:16;3.00;99.90
65146;DHT22;51730;56.950;24.126;2023-03-04T02:50:48;3.10;99.90
65146;DHT22;51730;56.950;24.126;2023-03-04T02:53:15;3.10;99.90
65146;DHT22;51730;56.950;24.126;2023-03-04T02:55:42;3.00;99.90
65146;DHT22;51730;56.950;24.126;2023-03-04T02:58:09;2.90;99.90
65146;DHT22;51730;56.950;24.126;2023-03-04T03:00:36;3.10;99.90
65146;DHT22;51730;56.950;24.126;2023-03-04T03:03:03;3.00;99.90
65146;DHT22;51730;56.950;24.126;2023-03-04T03:05:31;2.90;99.90
65146;DHT22;51730;56.950;24.126;2023-03-04T03:07:58;3.00;99.90
65146;DHT22;51730;56.950;24.126;2023-03-04T03:10:25;3.10;99.90
65146;DHT22;51730;56.950;24.126;2023-03-04T03:12:52;3.00;99.90
65146;DHT22;51730;56.950;24.126;2023-03-04T03:15:18;3.00;99.80
65146;DHT22;51730;56.950;24.126;2023-03-04T03:17:45;2.90;99.90
65146;DHT22;51730;56.950;24.126;2023-03-04T03:20:13;3.00;99.90
65146;DHT22;51730;56.950;24.126;2023-03-04T03:22:40;3.00;99.90
65146;DHT22;51730;56.950;24.126;2023-03-04T03:25:07;3.10;99.90
65146;DHT22;51730;56.950;24.126;2023-03-04T03:27:34;2.90;99.90
65146;DHT22;51730;56.950;24.126;2023-03-04T03:30:02;2.70;99.90
65146;DHT22;51730;56.950;24.126;2023-03-04T03:32:29;2.80;99.90
65146;DHT22;51730;56.950;24.126;2023-03-04T03:34:55;2.80;99.90
65146;DHT22;51730;56.950;24.126;2023-03-04T03:37:22;2.60;99.90
65146;DHT22;51730;56.950;24.126;2023-03-04T03:39:49;2.70;99.90
65146;DHT22;51730;56.950;24.126;2023-03-04T03:42:16;2.70;99.90
65146;DHT22;51730;56.950;24.126;2023-03-04T03:44:42;2.80;99.90
65146;DHT22;51730;56.950;24.126;2023-03-04T03:47:09;2.70;99.90
65146;DHT22;51730;56.950;24.126;2023-03-04T03:49:36;2.60;99.90
65146;DHT22;51730;56.950;24.126;2023-03-04T03:52:03;2.70;99.90
65146;DHT22;51730;56.950;24.126;2023-03-04T03:54:30;2.70;99.90
65146;DHT22;51730;56.950;24.126;2023-03-04T03:56:57;2.60;99.90
65146;DHT22;51730;56.950;24.126;2023-03-04T03:59:23;2.60;99.90
65146;DHT22;51730;56.950;24.126;2023-03-04T04:01:50;2.60;99.90
65146;DHT22;51730;56.950;24.126;2023-03-04T04:04:17;2.60;99.90
65146;DHT22;51730;56.950;24.126;2023-03-04T04:06:44;2.50;99.90
65146;DHT22;51730;56.950;24.126;2023-03-04T04:09:11;2.30;99.90
65146;DHT22;51730;56.950;24.126;2023-03-04T04:11:37;2.30;99.90
65146;DHT22;51730;56.950;24.126;2023-03-04T04:14:04;2.20;99.90
65146;DHT22;51730;56.950;24.126;2023-03-04T04:16:31;2.20;99.90
65146;DHT22;51730;56.950;24.126;2023-03-04T04:18:58;2.00;99.90
65146;DHT22;51730;56.950;24.126;2023-03-04T04:21:25;2.00;99.90
65146;DHT22;51730;56.950;24.126;2023-03-04T04:23:51;2.10;99.90
65146;DHT22;51730;56.950;24.126;2023-03-04T04:26:18;2.00;99.90
65146;DHT22;51730;56.950;24.126;2023-03-04T04:28:45;2.10;99.90
65146;DHT22;51730;56.950;24.126;2023-03-04T04:31:12;2.10;99.90
65146;DHT22;51730;56.950;24.126;2023-03-04T04:33:38;1.90;99.90
65146;DHT22;51730;56.950;24.126;2023-03-04T04:36:05;1.90;99.90
65146;DHT22;51730;56.950;24.126;2023-03-04T04:38:32;2.10;99.90
65146;DHT22;51730;56.950;24.126;2023-03-04T04:40:59;2.10;99.90
65146;DHT22;51730;56.950;24.126;2023-03-04T04:43:26;2.00;99.90
65146;DHT22;51730;56.950;24.126;2023-03-04T04:45:53;1.90;99.90
65146;DHT22;51730;56.950;24.126;2023-03-04T04:48:19;2.10;99.90
65146;DHT22;51730;56.950;24.126;2023-03-04T04:50:46;2.00;99.90
65146;DHT22;51730;56.950;24.126;2023-03-04T04:53:18;2.10;99.90
65146;DHT22;51730;56.950;24.126;2023-03-04T04:55:45;2.00;99.90
65146;DHT22;51730;56.950;24.126;2023-03-04T04:58:12;2.00;99.90
65146;DHT22;51730;56.950;24.126;2023-03-04T05:00:39;2.00;99.90
65146;DHT22;51730;56.950;24.126;2023-03-04T05:03:05;2.00;99.90
65146;DHT22;51730;56.950;24.126;2023-03-04T05:05:32;2.00;99.90
65146;DHT22;51730;56.950;24.126;2023-03-04T05:07:59;2.00;99.90
65146;DHT22;51730;56.950;24.126;2023-03-04T05:10:26;2.00;99.90
65146;DHT22;51730;56.950;24.126;2023-03-04T05:12:52;1.90;99.90
65146;DHT22;51730;56.950;24.126;2023-03-04T05:15:19;2.00;99.90
65146;DHT22;51730;56.950;24.126;2023-03-04T05:17:46;1.90;99.90
65146;DHT22;51730;56.950;24.126;2023-03-04T05:20:13;1.80;99.90
65146;DHT22;51730;56.950;24.126;2023-03-04T05:22:40;1.80;99.90
65146;DHT22;51730;56.950;24.126;2023-03-04T05:25:06;1.80;99.90
65146;DHT22;51730;56.950;24.126;2023-03-04T05:27:33;1.90;99.90
65146;DHT22;51730;56.950;24.126;2023-03-04T05:30:00;1.90;99.90
65146;DHT22;51730;56.950;24.126;2023-03-04T05:32:27;1.90;99.90
65146;DHT22;51730;56.950;24.126;2023-03-04T05:34:54;1.90;99.90
65146;DHT22;51730;56.950;24.126;2023-03-04T05:37:20;1.80;99.90
65146;DHT22;51730;56.950;24.126;2023-03-04T05:39:47;1.80;99.90
65146;DHT22;51730;56.950;24.126;2023-03-04T05:42:14;1.80;99.90
65146;DHT22;51730;56.950;24.126;2023-03-04T05:44:41;1.70;99.90
65146;DHT22;51730;56.950;24.126;2023-03-04T05:47:07;1.80;99.90
65146;DHT22;51730;56.950;24.126;2023-03-04T05:49:34;1.70;99.90
65146;DHT22;51730;56.950;24.126;2023-03-04T05:52:01;1.70;99.90
65146;DHT22;51730;56.950;24.126;2023-03-04T05:54:27;1.80;99.90
65146;DHT22;51730;56.950;24.126;2023-03-04T05:56:54;1.70;99.90
65146;DHT22;51730;56.950;24.126;2023-03-04T05:59:21;1.60;99.90
65146;DHT22;51730;56.950;24.126;2023-03-04T06:01:49;1.60;99.90
65146;DHT22;51730;56.950;24.126;2023-03-04T06:04:16;1.60;99.90
65146;DHT22;51730;56.950;24.126;2023-03-04T06:06:42;1.60;99.90
65146;DHT22;51730;56.950;24.126;2023-03-04T06:09:12;1.60;99.90
65146;DHT22;51730;56.950;24.126;2023-03-04T06:11:39;1.50;99.90
65146;DHT22;51730;56.950;24.126;2023-03-04T06:14:06;1.40;99.90
65146;DHT22;51730;56.950;24.126;2023-03-04T06:16:33;1.30;99.90
65146;DHT22;51730;56.950;24.126;2023-03-04T06:19:00;1.00;99.90
65146;DHT22;51730;56.950;24.126;2023-03-04T06:21:27;1.10;99.90
65146;DHT22;51730;56.950;24.126;2023-03-04T06:23:53;1.20;99.90
65146;DHT22;51730;56.950;24.126;2023-03-04T06:26:20;1.20;99.90
65146;DHT22;51730;56.950;24.126;2023-03-04T06:28:47;1.30;99.90
65146;DHT22;51730;56.950;24.126;2023-03-04T06:31:14;1.40;99.90
65146;DHT22;51730;56.950;24.126;2023-03-04T06:33:41;1.30;99.90
65146;DHT22;51730;56.950;24.126;2023-03-04T06:36:08;1.40;99.90
65146;DHT22;51730;56.950;24.126;2023-03-04T06:38:34;1.50;99.90
65146;DHT22;51730;56.950;24.126;2023-03-04T06:41:05;1.40;99.90
65146;DHT22;51730;56.950;24.126;2023-03-04T06:43:32;1.50;99.90
65146;DHT22;51730;56.950;24.126;2023-03-04T06:45:59;1.60;99.90
65146;DHT22;51730;56.950;24.126;2023-03-04T06:48:26;1.70;99.90
65146;DHT22;51730;56.950;24.126;2023-03-04T06:50:53;1.90;99.90
65146;DHT22;51730;56.950;24.126;2023-03-04T06:53:20;1.80;99.90
65146;DHT22;51730;56.950;24.126;2023-03-04T06:55:47;1.80;99.90
65146;DHT22;51730;56.950;24.126;2023-03-04T06:58:15;1.80;99.90
65146;DHT22;51730;56.950;24.126;2023-03-04T07:00:43;1.60;99.90
65146;DHT22;51730;56.950;24.126;2023-03-04T07:03:10;1.70;99.90
65146;DHT22;51730;56.950;24.126;2023-03-04T07:05:38;1.60;99.90
65146;DHT22;51730;56.950;24.126;2023-03-04T07:08:04;1.70;99.90
65146;DHT22;51730;56.950;24.126;2023-03-04T07:10:32;1.60;99.90
65146;DHT22;51730;56.950;24.126;2023-03-04T07:12:59;1.50;99.90
65146;DHT22;51730;56.950;24.126;2023-03-04T07:15:26;1.50;99.90
65146;DHT22;51730;56.950;24.126;2023-03-04T07:17:53;1.70;99.90
65146;DHT22;51730;56.950;24.126;2023-03-04T07:20:20;1.60;99.90
65146;DHT22;51730;56.950;24.126;2023-03-04T07:22:47;1.80;99.90
65146;DHT22;51730;56.950;24.126;2023-03-04T07:25:13;1.80;99.90
65146;DHT22;51730;56.950;24.126;2023-03-04T07:27:40;2.10;99.90
65146;DHT22;51730;56.950;24.126;2023-03-04T07:30:07;2.00;99.90
65146;DHT22;51730;56.950;24.126;2023-03-04T07:32:34;2.10;99.90
65146;DHT22;51730;56.950;24.126;2023-03-04T07:35:01;1.80;99.90
65146;DHT22;51730;56.950;24.126;2023-03-04T07:37:29;1.60;99.90
65146;DHT22;51730;56.950;24.126;2023-03-04T07:39:56;1.80;99.90
65146;DHT22;51730;56.950;24.126;2023-03-04T07:42:22;1.80;99.90
65146;DHT22;51730;56.950;24.126;2023-03-04T07:44:49;1.80;99.90
65146;DHT22;51730;56.950;24.126;2023-03-04T07:47:16;1.80;99.90
65146;DHT22;51730;56.950;24.126;2023-03-04T07:49:43;2.10;99.90
65146;DHT22;51730;56.950;24.126;2023-03-04T07:52:09;2.20;99.90
65146;DHT22;51730;56.950;24.126;2023-03-04T07:54:36;2.20;99.90
65146;DHT22;51730;56.950;24.126;2023-03-04T07:57:03;2.20;99.90
65146;DHT22;51730;56.950;24.126;2023-03-04T07:59:30;2.40;99.90
65146;DHT22;51730;56.950;24.126;2023-03-04T08:01:57;2.10;99.90
65146;DHT22;51730;56.950;24.126;2023-03-04T08:04:24;2.50;99.90
65146;DHT22;51730;56.950;24.126;2023-03-04T08:06:51;2.30;99.90
65146;DHT22;51730;56.950;24.126;2023-03-04T08:09:17;1.80;99.90
65146;DHT22;51730;56.950;24.126;2023-03-04T08:11:44;1.80;99.90
65146;DHT22;51730;56.950;24.126;2023-03-04T08:14:11;2.20;99.90
65146;DHT22;51730;56.950;24.126;2023-03-04T08:16:38;2.10;99.90
65146;DHT22;51730;56.950;24.126;2023-03-04T08:19:05;2.20;99.90
65146;DHT22;51730;56.950;24.126;2023-03-04T08:21:32;2.10;99.90
65146;DHT22;51730;56.950;24.126;2023-03-04T08:24:00;2.20;99.90
65146;DHT22;51730;56.950;24.126;2023-03-04T08:26:31;2.10;99.90
65146;DHT22;51730;56.950;24.126;2023-03-04T08:28:59;2.20;99.90
65146;DHT22;51730;56.950;24.126;2023-03-04T08:31:27;2.10;99.90
65146;DHT22;51730;56.950;24.126;2023-03-04T08:33:54;2.00;99.90
65146;DHT22;51730;56.950;24.126;2023-03-04T08:36:22;2.10;99.90
65146;DHT22;51730;56.950;24.126;2023-03-04T08:38:48;2.20;99.90
65146;DHT22;51730;56.950;24.126;2023-03-04T08:41:15;2.00;99.90
65146;DHT22;51730;56.950;24.126;2023-03-04T08:43:42;2.20;99.90
65146;DHT22;51730;56.950;24.126;2023-03-04T08:46:09;2.10;99.90
65146;DHT22;51730;56.950;24.126;2023-03-04T08:48:36;2.00;99.90
65146;DHT22;51730;56.950;24.126;2023-03-04T08:51:10;1.70;99.90
65146;DHT22;51730;56.950;24.126;2023-03-04T08:53:37;1.60;99.90
65146;DHT22;51730;56.950;24.126;2023-03-04T08:56:05;1.70;99.90
65146;DHT22;51730;56.950;24.126;2023-03-04T08:58:32;1.80;99.90
65146;DHT22;51730;56.950;24.126;2023-03-04T09:00:59;1.80;99.90
65146;DHT22;51730;56.950;24.126;2023-03-04T09:03:26;1.70;99.90
65146;DHT22;51730;56.950;24.126;2023-03-04T09:05:54;1.70;99.90
65146;DHT22;51730;56.950;24.126;2023-03-04T09:08:21;1.70;99.90
65146;DHT22;51730;56.950;24.126;2023-03-04T09:10:50;1.40;99.90
65146;DHT22;51730;56.950;24.126;2023-03-04T09:13:17;1.40;99.90
65146;DHT22;51730;56.950;24.126;2023-03-04T09:15:48;1.30;99.90
65146;DHT22;51730;56.950;24.126;2023-03-04T09:18:15;1.10;99.90
65146;DHT22;51730;56.950;24.126;2023-03-04T09:20:43;0.90;99.90
65146;DHT22;51730;56.950;24.126;2023-03-04T09:23:10;1.20;99.90
65146;DHT22;51730;56.950;24.126;2023-03-04T09:25:38;1.30;99.90
65146;DHT22;51730;56.950;24.126;2023-03-04T09:28:05;1.30;99.90
65146;DHT22;51730;56.950;24.126;2023-03-04T09:30:33;1.40;99.90
65146;DHT22;51730;56.950;24.126;2023-03-04T09:33:00;1.50;99.90
65146;DHT22;51730;56.950;24.126;2023-03-04T09:35:27;1.60;99.90
65146;DHT22;51730;56.950;24.126;2023-03-04T09:37:55;1.60;99.90
65146;DHT22;51730;56.950;24.126;2023-03-04T09:40:24;1.30;99.90
65146;DHT22;51730;56.950;24.126;2023-03-04T09:42:53;1.50;99.90
65146;DHT22;51730;56.950;24.126;2023-03-04T09:45:21;1.50;99.90
65146;DHT22;51730;56.950;24.126;2023-03-04T09:47:49;1.50;99.90
65146;DHT22;51730;56.950;24.126;2023-03-04T09:50:17;1.50;99.90
65146;DHT22;51730;56.950;24.126;2023-03-04T09:55:26;1.70;99.90
65146;DHT22;51730;56.950;24.126;2023-03-04T10:05:30;1.40;99.90
65146;DHT22;51730;56.950;24.126;2023-03-04T10:07:58;1.40;99.90
65146;DHT22;51730;56.950;24.126;2023-03-04T10:10:28;1.40;99.90
65146;DHT22;51730;56.950;24.126;2023-03-04T10:12:55;1.60;99.90
65146;DHT22;51730;56.950;24.126;2023-03-04T10:15:30;1.40;99.90
65146;DHT22;51730;56.950;24.126;2023-03-04T10:18:12;1.30;99.90
65146;DHT22;51730;56.950;24.126;2023-03-04T10:23:17;1.20;99.90
65146;DHT22;51730;56.950;24.126;2023-03-04T10:25:44;1.10;99.90
65146;DHT22;51730;56.950;24.126;2023-03-04T10:28:15;1.10;99.90
65146;DHT22;51730;56.950;24.126;2023-03-04T10:33:20;1.00;99.90
65146;DHT22;51730;56.950;24.126;2023-03-04T10:35:47;1.30;99.90
65146;DHT22;51730;56.950;24.126;2023-03-04T10:38:17;1.20;99.90
65146;DHT22;51730;56.950;24.126;2023-03-04T10:40:44;1.30;99.90
65146;DHT22;51730;56.950;24.126;2023-03-04T10:43:15;1.20;99.90
65146;DHT22;51730;56.950;24.126;2023-03-04T10:45:42;0.90;99.90
65146;DHT22;51730;56.950;24.126;2023-03-04T10:48:16;1.10;99.90
65146;DHT22;51730;56.950;24.126;2023-03-04T10:50:44;0.90;99.90
65146;DHT22;51730;56.950;24.126;2023-03-04T10:53:22;0.70;99.90
65146;DHT22;51730;56.950;24.126;2023-03-04T10:55:49;0.90;99.90
65146;DHT22;51730;56.950;24.126;2023-03-04T10:58:16;0.70;99.90
65146;DHT22;51730;56.950;24.126;2023-03-04T11:01:04;0.50;99.90
65146;DHT22;51730;56.950;24.126;2023-03-04T11:03:33;0.60;99.90
65146;DHT22;51730;56.950;24.126;2023-03-04T11:06:11;0.50;99.90
65146;DHT22;51730;56.950;24.126;2023-03-04T11:08:41;0.40;99.90
65146;DHT22;51730;56.950;24.126;2023-03-04T11:11:21;0.40;99.90
65146;DHT22;51730;56.950;24.126;2023-03-04T11:13:55;0.40;99.90
65146;DHT22;51730;56.950;24.126;2023-03-04T11:16:26;0.50;99.90
65146;DHT22;51730;56.950;24.126;2023-03-04T11:18:55;0.50;99.90
65146;DHT22;51730;56.950;24.126;2023-03-04T11:21:25;0.60;99.90
65146;DHT22;51730;56.950;24.126;2023-03-04T11:23:59;0.60;99.90
65146;DHT22;51730;56.950;24.126;2023-03-04T11:26:30;0.50;99.90
65146;DHT22;51730;56.950;24.126;2023-03-04T11:29:17;0.40;99.90
65146;DHT22;51730;56.950;24.126;2023-03-04T11:31:48;0.50;99.90
65146;DHT22;51730;56.950;24.126;2023-03-04T11:36:56;0.40;99.90
65146;DHT22;51730;56.950;24.126;2023-03-04T11:39:29;0.50;99.90
65146;DHT22;51730;56.950;24.126;2023-03-04T11:42:22;0.40;99.90
65146;DHT22;51730;56.950;24.126;2023-03-04T11:44:45;0.50;99.90
65146;DHT22;51730;56.950;24.126;2023-03-04T11:47:15;0.60;99.90
65146;DHT22;51730;56.950;24.126;2023-03-04T11:58:39;0.50;99.90
65146;DHT22;51730;56.950;24.126;2023-03-04T12:00:36;0.40;99.90
65146;DHT22;51730;56.950;24.126;2023-03-04T12:10:57;0.50;99.90
65146;DHT22;51730;56.950;24.126;2023-03-04T12:16:09;0.40;99.90
65146;DHT22;51730;56.950;24.126;2023-03-04T12:18:40;0.50;99.90
65146;DHT22;51730;56.950;24.126;2023-03-04T12:23:43;0.40;99.90
65146;DHT22;51730;56.950;24.126;2023-03-04T12:26:28;0.50;99.90
65146;DHT22;51730;56.950;24.126;2023-03-04T12:33:59;0.60;99.90
65146;DHT22;51730;56.950;24.126;2023-03-04T12:36:34;0.60;99.90
65146;DHT22;51730;56.950;24.126;2023-03-04T12:44:19;0.90;99.90
65146;DHT22;51730;56.950;24.126;2023-03-04T12:59:29;1.40;99.90
65146;DHT22;51730;56.950;24.126;2023-03-04T13:07:21;1.40;99.90
65146;DHT22;51730;56.950;24.126;2023-03-04T13:09:57;1.40;99.90
65146;DHT22;51730;56.950;24.126;2023-03-04T13:12:26;1.40;99.90
65146;DHT22;51730;56.950;24.126;2023-03-04T13:15:28;1.30;99.90
65146;DHT22;51730;56.950;24.126;2023-03-04T13:17:54;1.30;99.90
65146;DHT22;51730;56.950;24.126;2023-03-04T13:20:32;1.30;99.90
65146;DHT22;51730;56.950;24.126;2023-03-04T13:25:28;1.30;99.90
65146;DHT22;51730;56.950;24.126;2023-03-04T13:31:13;1.30;99.90
65146;DHT22;51730;56.950;24.126;2023-03-04T13:56:32;1.40;99.90
65146;DHT22;51730;56.950;24.126;2023-03-04T14:01:30;1.40;99.90
65146;DHT22;51730;56.950;24.126;2023-03-04T14:03:58;1.40;99.90
65146;DHT22;51730;56.950;24.126;2023-03-04T14:06:26;1.50;99.90
65146;DHT22;51730;56.950;24.126;2023-03-04T14:08:53;1.50;99.90
65146;DHT22;51730;56.950;24.126;2023-03-04T14:13:47;1.30;99.90
65146;DHT22;51730;56.950;24.126;2023-03-04T14:16:18;1.40;99.90
65146;DHT22;51730;56.950;24.126;2023-03-04T14:18:46;1.40;99.90
65146;DHT22;51730;56.950;24.126;2023-03-04T14:21:21;1.40;99.90
65146;DHT22;51730;56.950;24.126;2023-03-04T14:23:58;1.40;99.90
65146;DHT22;51730;56.950;24.126;2023-03-04T14:26:25;1.40;99.90
65146;DHT22;51730;56.950;24.126;2023-03-04T14:28:52;1.30;99.90
65146;DHT22;51730;56.950;24.126;2023-03-04T14:31:23;1.30;99.90
65146;DHT22;51730;56.950;24.126;2023-03-04T14:33:51;1.30;99.90
65146;DHT22;51730;56.950;24.126;2023-03-04T14:36:21;1.40;99.90
65146;DHT22;51730;56.950;24.126;2023-03-04T14:38:50;1.30;99.90
65146;DHT22;51730;56.950;24.126;2023-03-04T14:41:19;1.30;99.90
65146;DHT22;51730;56.950;24.126;2023-03-04T14:43:52;1.20;99.90
65146;DHT22;51730;56.950;24.126;2023-03-04T14:46:21;1.20;99.90
65146;DHT22;51730;56.950;24.126;2023-03-04T14:48:50;1.10;99.90
65146;DHT22;51730;56.950;24.126;2023-03-04T14:51:32;1.20;99.90
65146;DHT22;51730;56.950;24.126;2023-03-04T14:54:02;1.20;99.90
65146;DHT22;51730;56.950;24.126;2023-03-04T14:56:29;1.20;99.90
65146;DHT22;51730;56.950;24.126;2023-03-04T14:58:57;1.20;99.90
65146;DHT22;51730;56.950;24.126;2023-03-04T15:01:28;1.20;99.90
65146;DHT22;51730;56.950;24.126;2023-03-04T15:04:00;1.20;99.90
65146;DHT22;51730;56.950;24.126;2023-03-04T15:06:28;1.20;99.90
65146;DHT22;51730;56.950;24.126;2023-03-04T15:09:17;1.20;99.90
65146;DHT22;51730;56.950;24.126;2023-03-04T15:14:39;1.20;99.90
65146;DHT22;51730;56.950;24.126;2023-03-04T15:16:56;1.20;99.90
65146;DHT22;51730;56.950;24.126;2023-03-04T15:19:25;1.10;99.90
65146;DHT22;51730;56.950;24.126;2023-03-04T15:22:01;1.20;99.90
65146;DHT22;51730;56.950;24.126;2023-03-04T15:24:28;1.20;99.90
65146;DHT22;51730;56.950;24.126;2023-03-04T15:26:55;1.20;99.90
65146;DHT22;51730;56.950;24.126;2023-03-04T15:29:22;1.20;99.90
65146;DHT22;51730;56.950;24.126;2023-03-04T15:31:49;1.10;99.90
65146;DHT22;51730;56.950;24.126;2023-03-04T15:34:18;1.10;99.90
65146;DHT22;51730;56.950;24.126;2023-03-04T15:36:46;1.00;99.90
65146;DHT22;51730;56.950;24.126;2023-03-04T15:39:14;1.10;99.90
65146;DHT22;51730;56.950;24.126;2023-03-04T15:41:42;1.00;99.90
65146;DHT22;51730;56.950;24.126;2023-03-04T15:44:09;1.00;99.90
65146;DHT22;51730;56.950;24.126;2023-03-04T15:46:37;1.00;99.90
65146;DHT22;51730;56.950;24.126;2023-03-04T15:49:04;1.00;99.90
65146;DHT22;51730;56.950;24.126;2023-03-04T15:51:31;1.00;99.90
65146;DHT22;51730;56.950;24.126;2023-03-04T15:53:58;1.00;99.90
65146;DHT22;51730;56.950;24.126;2023-03-04T15:56:26;0.90;99.90
65146;DHT22;51730;56.950;24.126;2023-03-04T15:58:54;0.90;99.90
65146;DHT22;51730;56.950;24.126;2023-03-04T16:01:22;1.00;99.90
65146;DHT22;51730;56.950;24.126;2023-03-04T16:03:49;1.00;99.90
65146;DHT22;51730;56.950;24.126;2023-03-04T16:06:24;1.00;99.90
65146;DHT22;51730;56.950;24.126;2023-03-04T16:08:52;1.00;99.90
65146;DHT22;51730;56.950;24.126;2023-03-04T16:11:20;1.00;99.90
65146;DHT22;51730;56.950;24.126;2023-03-04T16:13:47;1.10;99.90
65146;DHT22;51730;56.950;24.126;2023-03-04T16:16:14;1.00;99.90
65146;DHT22;51730;56.950;24.126;2023-03-04T16:18:41;1.00;99.90
65146;DHT22;51730;56.950;24.126;2023-03-04T16:21:13;1.10;99.90
65146;DHT22;51730;56.950;24.126;2023-03-04T16:23:41;1.00;99.90
65146;DHT22;51730;56.950;24.126;2023-03-04T16:26:12;1.10;99.90
65146;DHT22;51730;56.950;24.126;2023-03-04T16:28:42;1.10;99.90
65146;DHT22;51730;56.950;24.126;2023-03-04T16:31:12;1.00;99.90
65146;DHT22;51730;56.950;24.126;2023-03-04T16:33:39;1.00;99.90
65146;DHT22;51730;56.950;24.126;2023-03-04T16:38:36;0.90;99.90
65146;DHT22;51730;56.950;24.126;2023-03-04T16:41:04;0.90;99.90
65146;DHT22;51730;56.950;24.126;2023-03-04T16:43:34;0.90;99.90
65146;DHT22;51730;56.950;24.126;2023-03-04T16:46:01;0.90;99.90
65146;DHT22;51730;56.950;24.126;2023-03-04T16:48:28;0.90;99.90
65146;DHT22;51730;56.950;24.126;2023-03-04T16:50:55;0.90;99.90
65146;DHT22;51730;56.950;24.126;2023-03-04T16:53:28;0.90;99.90
65146;DHT22;51730;56.950;24.126;2023-03-04T16:55:58;1.00;99.90
65146;DHT22;51730;56.950;24.126;2023-03-04T16:58:26;0.90;99.90
65146;DHT22;51730;56.950;24.126;2023-03-04T17:00:53;1.00;99.90
65146;DHT22;51730;56.950;24.126;2023-03-04T17:03:20;1.00;99.90
65146;DHT22;51730;56.950;24.126;2023-03-04T17:05:47;1.10;99.90
65146;DHT22;51730;56.950;24.126;2023-03-04T17:08:13;1.00;99.90
65146;DHT22;51730;56.950;24.126;2023-03-04T17:10:40;1.00;99.90
65146;DHT22;51730;56.950;24.126;2023-03-04T17:13:07;1.10;99.90
65146;DHT22;51730;56.950;24.126;2023-03-04T17:15:34;1.10;99.90
65146;DHT22;51730;56.950;24.126;2023-03-04T17:18:01;1.10;99.90
65146;DHT22;51730;56.950;24.126;2023-03-04T17:20:28;1.00;99.90
65146;DHT22;51730;56.950;24.126;2023-03-04T17:22:54;1.00;99.90
65146;DHT22;51730;56.950;24.126;2023-03-04T17:25:21;1.00;99.90
65146;DHT22;51730;56.950;24.126;2023-03-04T17:27:48;1.10;99.90